Time;durP1;ratioP1;P1;durP2;ratioP2;P2;SDS_P1;SDS_P2;PMS_P1;PMS_P2;Temp;Humidity;BMP_temperature;BMP_pressure;BME280_temperature;BME280_humidity;BME280_pressure;Samples;Min_cycle;Max_cycle;Signal;HPM_P1;HPM_P2
2022/08/19 07:29:11;;;;;;;;;;;25.50;96.40;;;;;;5166762;22;19921;-84
2022/08/19 07:31:38;;;;;;;;;;;25.50;96.30;;;;;;5036952;28;20004;-84
2022/08/19 07:34:07;;;;;;;;;;;25.50;96.10;;;;;;5038317;28;19921;-85
2022/08/19 07:36:34;;;;;;;;;;;25.40;95.80;;;;;;5038227;28;19968;-83
2022/08/19 07:39:04;;;;;;;;;;;25.40;95.70;;;;;;5040473;28;19972;-81
2022/08/19 07:41:32;;;;;;;;;;;25.40;95.40;;;;;;5097538;22;20367;-82
2022/08/19 07:44:03;;;;;;;;;;;25.40;95.40;;;;;;5041493;28;19967;-84
2022/08/19 07:46:34;;;;;;;;;;;25.30;95.50;;;;;;5042394;28;19920;-81
2022/08/19 07:49:01;;;;;;;;;;;25.30;95.30;;;;;;5039249;28;19968;-75
2022/08/19 07:51:28;;;;;;;;;;;25.30;95.20;;;;;;5035785;28;20350;-76
2022/08/19 07:53:55;;;;;;;;;;;25.30;95.00;;;;;;5035814;28;19921;-76
2022/08/19 07:56:22;;;;;;;;;;;25.30;94.90;;;;;;5035865;28;20287;-76
2022/08/19 07:58:50;;;;;;;;;;;25.30;94.70;;;;;;5035441;28;20426;-76
2022/08/19 08:01:18;;;;;;;;;;;25.30;94.60;;;;;;5035663;28;19921;-77
2022/08/19 08:09:20;;;;;;;;;;;25.20;94.30;;;;;;5035277;28;20342;-76
2022/08/19 08:11:49;;;;;;;;;;;25.20;94.20;;;;;;5035472;28;19921;-75
2022/08/19 08:14:16;;;;;;;;;;;25.20;94.00;;;;;;5035478;28;19928;-76
2022/08/19 08:16:45;;;;;;;;;;;25.20;93.80;;;;;;5035395;28;19921;-76
2022/08/19 08:19:15;;;;;;;;;;;25.10;93.60;;;;;;5035392;28;19927;-76
2022/08/19 08:21:42;;;;;;;;;;;25.10;93.50;;;;;;5035116;28;19921;-75
2022/08/19 08:24:09;;;;;;;;;;;25.10;93.40;;;;;;5035276;28;19929;-76
2022/08/19 08:26:35;;;;;;;;;;;25.10;93.20;;;;;;5035134;28;20019;-74
2022/08/19 08:29:02;;;;;;;;;;;25.10;93.00;;;;;;5034809;28;19921;-74
2022/08/19 08:31:29;;;;;;;;;;;25.00;92.80;;;;;;5034976;28;20346;-74
2022/08/19 08:33:55;;;;;;;;;;;25.00;92.80;;;;;;5035010;28;19921;-74
2022/08/19 08:36:24;;;;;;;;;;;25.00;92.80;;;;;;5034947;28;19927;-74
2022/08/19 08:38:51;;;;;;;;;;;25.00;92.80;;;;;;5034513;28;19921;-74
2022/08/19 08:41:20;;;;;;;;;;;25.00;92.70;;;;;;5035535;28;19921;-79
2022/08/19 08:43:48;;;;;;;;;;;24.90;92.20;;;;;;5035136;28;19925;-78
2022/08/19 08:46:17;;;;;;;;;;;24.90;92.00;;;;;;5035578;28;20015;-78
2022/08/19 08:48:47;;;;;;;;;;;24.90;92.00;;;;;;5037939;28;20019;-77
2022/08/19 08:51:16;;;;;;;;;;;24.90;92.00;;;;;;5035286;28;19920;-78
2022/08/19 08:53:45;;;;;;;;;;;24.90;92.00;;;;;;5035024;28;20012;-78
2022/08/19 08:56:13;;;;;;;;;;;24.90;92.00;;;;;;5035853;28;20000;-73
2022/08/19 08:58:46;;;;;;;;;;;24.90;91.90;;;;;;5034300;28;20423;-73
2022/08/19 09:01:13;;;;;;;;;;;24.90;92.20;;;;;;5034566;28;19921;-73
2022/08/19 09:03:40;;;;;;;;;;;24.90;91.90;;;;;;5034496;28;19921;-74
2022/08/19 09:06:07;;;;;;;;;;;24.90;91.80;;;;;;5034521;28;19928;-74
2022/08/19 09:08:39;;;;;;;;;;;24.90;91.80;;;;;;5034468;28;19925;-73
2022/08/19 09:11:08;;;;;;;;;;;24.90;91.70;;;;;;5034390;28;20004;-73
2022/08/19 09:13:37;;;;;;;;;;;24.80;91.70;;;;;;5034094;28;20394;-73
2022/08/19 09:16:06;;;;;;;;;;;24.80;91.60;;;;;;5034021;28;20392;-73
2022/08/19 09:18:41;;;;;;;;;;;24.80;91.70;;;;;;5033980;28;20300;-73
2022/08/19 09:21:09;;;;;;;;;;;24.80;91.60;;;;;;5034235;28;19944;-73
2022/08/19 09:23:35;;;;;;;;;;;24.80;91.60;;;;;;5033847;28;19996;-73
2022/08/19 09:26:02;;;;;;;;;;;24.80;91.60;;;;;;5034180;28;19921;-73
2022/08/19 09:28:31;;;;;;;;;;;24.80;91.60;;;;;;5034139;28;19927;-73
2022/08/19 09:30:57;;;;;;;;;;;24.80;91.60;;;;;;5034008;28;19927;-73
2022/08/19 09:33:24;;;;;;;;;;;24.70;91.50;;;;;;5033937;28;19924;-78
2022/08/19 09:35:51;;;;;;;;;;;24.70;91.50;;;;;;5034013;28;19927;-73
2022/08/19 09:38:18;;;;;;;;;;;24.70;91.50;;;;;;5033893;28;19972;-74
2022/08/19 09:40:44;;;;;;;;;;;24.70;91.60;;;;;;5033472;28;20023;-74
2022/08/19 09:43:11;;;;;;;;;;;24.70;91.60;;;;;;5033278;28;19921;-74
2022/08/19 09:45:39;;;;;;;;;;;24.70;91.60;;;;;;5033777;28;19968;-74
2022/08/19 09:48:05;;;;;;;;;;;24.70;91.70;;;;;;5033512;28;20380;-73
2022/08/19 09:50:38;;;;;;;;;;;24.70;91.70;;;;;;5033873;28;19921;-74
2022/08/19 09:53:05;;;;;;;;;;;24.70;91.70;;;;;;5037798;28;19958;-73
2022/08/19 09:55:32;;;;;;;;;;;24.70;91.80;;;;;;5038082;28;19921;-74
2022/08/19 09:58:00;;;;;;;;;;;24.70;91.80;;;;;;5038066;28;19921;-74
2022/08/19 10:00:26;;;;;;;;;;;24.70;91.90;;;;;;5038028;28;19964;-74
2022/08/19 10:02:54;;;;;;;;;;;24.70;91.90;;;;;;5038146;28;19979;-77
2022/08/19 10:08:05;;;;;;;;;;;24.70;92.00;;;;;;5037710;28;19928;-76
2022/08/19 10:10:35;;;;;;;;;;;24.70;92.10;;;;;;5037444;28;19971;-74
2022/08/19 10:13:02;;;;;;;;;;;24.70;92.20;;;;;;5037406;28;20424;-74
2022/08/19 10:15:29;;;;;;;;;;;24.70;92.30;;;;;;5037848;28;20365;-74
2022/08/19 10:17:59;;;;;;;;;;;24.70;92.30;;;;;;5037302;28;19925;-75
2022/08/19 10:20:26;;;;;;;;;;;24.70;92.30;;;;;;5038534;28;19927;-75
2022/08/19 10:22:52;;;;;;;;;;;24.60;92.40;;;;;;5037079;28;19921;-75
2022/08/19 10:25:19;;;;;;;;;;;24.60;92.50;;;;;;5037238;28;19927;-76
2022/08/19 10:27:46;;;;;;;;;;;24.60;92.60;;;;;;5037184;28;20016;-75
2022/08/19 10:30:13;;;;;;;;;;;24.60;92.60;;;;;;5037436;28;19921;-75
2022/08/19 10:32:40;;;;;;;;;;;24.60;92.60;;;;;;5037362;28;19943;-75
2022/08/19 10:35:08;;;;;;;;;;;24.60;92.60;;;;;;5037294;28;19921;-75
2022/08/19 10:37:35;;;;;;;;;;;24.60;92.60;;;;;;5036949;28;20388;-74
2022/08/19 10:40:02;;;;;;;;;;;24.60;92.60;;;;;;5036873;28;20402;-75
2022/08/19 10:42:30;;;;;;;;;;;24.60;92.60;;;;;;5036748;28;20008;-76
2022/08/19 10:44:57;;;;;;;;;;;24.60;92.80;;;;;;5037111;28;19928;-75
2022/08/19 10:47:24;;;;;;;;;;;24.60;92.90;;;;;;5036788;28;20372;-75
2022/08/19 10:52:36;;;;;;;;;;;24.50;92.90;;;;;;5040351;28;20012;-79
2022/08/19 10:57:48;;;;;;;;;;;24.50;93.00;;;;;;5040342;28;19924;-78
2022/08/19 11:00:15;;;;;;;;;;;24.50;93.20;;;;;;5040827;28;20289;-78
2022/08/19 11:02:42;;;;;;;;;;;24.60;94.30;;;;;;5042842;28;19921;-78
2022/08/19 11:05:10;;;;;;;;;;;24.70;95.10;;;;;;5042386;28;19928;-79
2022/08/19 11:07:38;;;;;;;;;;;24.80;95.60;;;;;;5044185;28;19921;-80
2022/08/19 11:10:06;;;;;;;;;;;24.90;96.20;;;;;;5045859;28;19921;-79
2022/08/19 11:12:32;;;;;;;;;;;24.90;96.70;;;;;;5045307;28;19963;-80
2022/08/19 11:14:59;;;;;;;;;;;25.00;97.10;;;;;;5046174;28;19921;-79
2022/08/19 11:17:26;;;;;;;;;;;25.00;97.50;;;;;;5044028;28;20015;-80
2022/08/19 11:19:53;;;;;;;;;;;25.00;97.70;;;;;;5043750;28;19921;-79
2022/08/19 11:22:19;;;;;;;;;;;25.00;98.00;;;;;;5042382;28;20005;-79
2022/08/19 11:24:47;;;;;;;;;;;25.10;98.50;;;;;;5041879;28;20019;-79
2022/08/19 11:27:14;;;;;;;;;;;25.10;98.80;;;;;;5040241;28;19928;-79
2022/08/19 11:29:41;;;;;;;;;;;25.10;99.00;;;;;;5040442;28;20379;-79
2022/08/19 11:32:09;;;;;;;;;;;25.10;99.20;;;;;;5038981;28;20348;-78
2022/08/19 11:34:36;;;;;;;;;;;25.10;99.40;;;;;;5037896;28;19979;-75
2022/08/19 11:37:05;;;;;;;;;;;25.10;99.50;;;;;;5036401;28;20333;-74
2022/08/19 11:39:33;;;;;;;;;;;25.10;99.50;;;;;;5036163;28;19929;-74
2022/08/19 11:42:01;;;;;;;;;;;25.10;99.40;;;;;;5035816;28;19920;-74
2022/08/19 11:44:30;;;;;;;;;;;25.10;99.40;;;;;;5036251;28;19921;-74
2022/08/19 11:46:57;;;;;;;;;;;25.00;99.30;;;;;;5035981;28;19928;-75
2022/08/19 11:49:24;;;;;;;;;;;25.00;99.20;;;;;;5035974;28;19921;-74
2022/08/19 11:51:50;;;;;;;;;;;25.00;99.20;;;;;;5035796;28;19921;-74
2022/08/19 11:54:17;;;;;;;;;;;25.00;99.10;;;;;;5035897;28;19967;-74
2022/08/19 11:56:45;;;;;;;;;;;25.00;99.00;;;;;;5035611;28;20369;-74
2022/08/19 11:59:13;;;;;;;;;;;24.90;98.90;;;;;;5037337;28;19920;-79
2022/08/19 12:01:40;;;;;;;;;;;24.90;98.90;;;;;;5041547;28;19975;-79
2022/08/19 12:04:07;;;;;;;;;;;24.90;98.80;;;;;;5041873;28;19921;-80
2022/08/19 12:06:34;;;;;;;;;;;24.90;98.70;;;;;;5040788;28;20004;-81
2022/08/19 12:09:05;;;;;;;;;;;24.90;98.80;;;;;;5041160;28;19921;-81
2022/08/19 12:11:32;;;;;;;;;;;24.90;98.80;;;;;;5040101;28;20388;-79
2022/08/19 12:13:59;;;;;;;;;;;24.90;98.90;;;;;;5039292;28;20011;-80
2022/08/19 12:16:28;;;;;;;;;;;24.90;99.00;;;;;;5040540;28;19971;-79
2022/08/19 12:18:55;;;;;;;;;;;24.90;99.00;;;;;;5039956;28;20004;-79
2022/08/19 12:21:24;;;;;;;;;;;24.90;99.00;;;;;;5039712;28;19921;-80
2022/08/19 12:23:52;;;;;;;;;;;25.00;99.10;;;;;;5035909;28;19921;-78
2022/08/19 12:26:19;;;;;;;;;;;25.00;99.20;;;;;;5035757;28;19921;-78
2022/08/19 12:28:47;;;;;;;;;;;25.00;99.30;;;;;;5036157;28;19927;-76
2022/08/19 12:31:14;;;;;;;;;;;25.00;99.30;;;;;;5035352;28;19928;-79
2022/08/19 12:33:43;;;;;;;;;;;25.00;99.30;;;;;;5035422;28;19921;-77
2022/08/19 12:36:12;;;;;;;;;;;25.00;99.30;;;;;;5035422;28;20027;-77
2022/08/19 12:38:39;;;;;;;;;;;25.00;99.20;;;;;;5034609;28;19927;-77
2022/08/19 12:41:06;;;;;;;;;;;25.00;99.10;;;;;;5034800;28;19920;-77
2022/08/19 12:43:34;;;;;;;;;;;25.00;99.10;;;;;;5034977;28;19976;-77
2022/08/19 12:46:01;;;;;;;;;;;25.00;99.00;;;;;;5035018;28;19921;-77
2022/08/19 12:48:28;;;;;;;;;;;25.00;98.90;;;;;;5035446;28;19921;-77
2022/08/19 12:50:57;;;;;;;;;;;24.90;98.80;;;;;;5034783;28;20051;-77
2022/08/19 12:53:24;;;;;;;;;;;24.90;98.80;;;;;;5034405;28;19968;-77
2022/08/19 12:55:56;;;;;;;;;;;24.90;98.70;;;;;;5034996;28;19928;-77
2022/08/19 12:58:23;;;;;;;;;;;24.90;98.60;;;;;;5034547;28;20293;-77
2022/08/19 13:00:49;;;;;;;;;;;24.90;98.60;;;;;;5034220;28;20285;-76
2022/08/19 13:03:16;;;;;;;;;;;24.90;98.50;;;;;;5034486;28;20016;-77
2022/08/19 13:05:44;;;;;;;;;;;24.90;98.80;;;;;;5034519;28;19967;-77
2022/08/19 13:08:12;;;;;;;;;;;24.90;98.40;;;;;;5038982;28;19975;-79
2022/08/19 13:10:38;;;;;;;;;;;24.90;98.30;;;;;;5039290;28;19928;-79
2022/08/19 13:13:06;;;;;;;;;;;24.90;98.30;;;;;;5037893;28;20384;-79
2022/08/19 13:15:34;;;;;;;;;;;24.90;98.20;;;;;;5040093;28;20015;-79
2022/08/19 13:18:00;;;;;;;;;;;24.90;98.10;;;;;;5039281;28;20007;-79
2022/08/19 13:20:27;;;;;;;;;;;24.90;98.10;;;;;;5039743;28;20007;-79
2022/08/19 13:22:54;;;;;;;;;;;24.90;98.00;;;;;;5038981;28;20015;-79
2022/08/19 13:25:22;;;;;;;;;;;24.90;98.00;;;;;;5038582;28;20019;-78
2022/08/19 13:27:50;;;;;;;;;;;24.90;97.90;;;;;;5039595;28;20020;-78
2022/08/19 13:33:15;;;;;;;;;;;24.90;97.80;;;;;;5039608;28;19971;-80
2022/08/19 13:35:43;;;;;;;;;;;24.90;97.70;;;;;;5040183;28;19921;-79
2022/08/19 13:38:10;;;;;;;;;;;24.90;97.70;;;;;;5036319;28;19921;-77
2022/08/19 13:40:38;;;;;;;;;;;24.90;97.70;;;;;;5034169;28;19927;-76
2022/08/19 13:43:06;;;;;;;;;;;24.80;97.60;;;;;;5062800;22;20015;-80
2022/08/19 13:45:34;;;;;;;;;;;24.90;97.70;;;;;;5041778;28;19925;-83
2022/08/19 13:48:02;;;;;;;;;;;24.90;97.70;;;;;;5041484;28;19921;-80
2022/08/19 13:50:31;;;;;;;;;;;24.80;97.60;;;;;;5037607;28;20352;-81
2022/08/19 13:52:58;;;;;;;;;;;24.80;97.60;;;;;;5038126;28;20303;-81
2022/08/19 13:55:25;;;;;;;;;;;24.80;97.50;;;;;;5039013;28;19964;-81
2022/08/19 13:57:53;;;;;;;;;;;24.90;97.60;;;;;;5038447;28;20342;-81
2022/08/19 14:00:21;;;;;;;;;;;24.80;97.40;;;;;;5037912;28;19928;-82
2022/08/19 14:02:51;;;;;;;;;;;24.90;97.40;;;;;;5038069;28;20380;-82
2022/08/19 14:05:18;;;;;;;;;;;24.80;97.30;;;;;;5037330;28;20257;-81
2022/08/19 14:07:45;;;;;;;;;;;24.80;97.30;;;;;;5036783;28;20000;-81
2022/08/19 14:10:13;;;;;;;;;;;24.80;97.30;;;;;;5038755;28;19928;-80
2022/08/19 14:12:39;;;;;;;;;;;24.80;97.20;;;;;;5039074;28;20015;-81
2022/08/19 14:15:09;;;;;;;;;;;24.90;97.20;;;;;;5038692;28;20007;-80
2022/08/19 14:17:38;;;;;;;;;;;24.90;97.20;;;;;;5040007;28;20012;-80
2022/08/19 14:20:07;;;;;;;;;;;24.90;97.20;;;;;;5040079;28;20008;-80
2022/08/19 14:22:34;;;;;;;;;;;24.80;97.10;;;;;;5040895;28;19980;-80
2022/08/19 14:25:01;;;;;;;;;;;24.90;97.10;;;;;;5039694;28;19925;-80
2022/08/19 14:27:27;;;;;;;;;;;24.80;97.10;;;;;;5039136;28;20007;-80
2022/08/19 14:29:54;;;;;;;;;;;24.80;97.00;;;;;;5038376;28;20011;-79
2022/08/19 14:32:23;;;;;;;;;;;24.90;97.10;;;;;;5037885;28;19975;-77
2022/08/19 14:34:50;;;;;;;;;;;24.90;97.00;;;;;;5037872;28;20020;-80
2022/08/19 14:37:16;;;;;;;;;;;24.80;97.00;;;;;;5038848;28;20011;-79
2022/08/19 14:39:43;;;;;;;;;;;24.80;97.00;;;;;;5041561;28;19947;-79
2022/08/19 14:42:10;;;;;;;;;;;24.80;96.90;;;;;;5042551;28;20012;-79
2022/08/19 14:44:37;;;;;;;;;;;24.80;96.90;;;;;;5042314;28;19964;-79
2022/08/19 14:47:04;;;;;;;;;;;24.80;97.20;;;;;;5042561;28;20336;-80
2022/08/19 14:49:32;;;;;;;;;;;24.80;96.90;;;;;;5041400;28;19981;-81
2022/08/19 14:51:58;;;;;;;;;;;24.80;96.90;;;;;;5040672;28;19921;-81
2022/08/19 14:54:25;;;;;;;;;;;24.80;96.80;;;;;;5040206;28;20015;-81
2022/08/19 14:56:52;;;;;;;;;;;24.80;96.80;;;;;;5039744;28;19921;-80
2022/08/19 14:59:18;;;;;;;;;;;24.80;96.80;;;;;;5040195;28;20007;-80
2022/08/19 15:01:45;;;;;;;;;;;24.80;96.80;;;;;;5039715;28;19976;-81
2022/08/19 15:04:12;;;;;;;;;;;24.80;96.80;;;;;;5039901;28;19927;-81
2022/08/19 15:06:42;;;;;;;;;;;24.80;96.70;;;;;;5039491;28;20003;-79
2022/08/19 15:09:09;;;;;;;;;;;24.80;96.70;;;;;;5039966;28;20354;-81
2022/08/19 15:11:36;;;;;;;;;;;24.80;96.70;;;;;;5040112;28;19927;-80
2022/08/19 15:14:04;;;;;;;;;;;24.80;96.70;;;;;;5038907;28;19921;-80
2022/08/19 15:16:31;;;;;;;;;;;24.80;96.70;;;;;;5039040;28;19954;-80
2022/08/19 15:18:59;;;;;;;;;;;24.80;96.70;;;;;;5039497;28;19952;-80
2022/08/19 15:21:26;;;;;;;;;;;24.80;96.70;;;;;;5039387;28;19948;-80
2022/08/19 15:23:55;;;;;;;;;;;24.80;96.60;;;;;;5039824;28;19976;-80
2022/08/19 15:26:22;;;;;;;;;;;24.80;96.60;;;;;;5039786;28;20007;-80
2022/08/19 15:28:48;;;;;;;;;;;24.80;96.60;;;;;;5039745;28;19927;-80
2022/08/19 15:31:18;;;;;;;;;;;24.80;96.60;;;;;;5040457;28;20012;-79
2022/08/19 15:33:45;;;;;;;;;;;24.80;96.60;;;;;;5040924;28;19927;-79
2022/08/19 15:36:12;;;;;;;;;;;24.80;96.60;;;;;;5040060;28;20273;-79
2022/08/19 15:38:41;;;;;;;;;;;24.80;96.60;;;;;;5040902;28;19928;-79
2022/08/19 15:41:24;;;;;;;;;;;24.90;96.70;;;;;;5040655;28;19949;-79
2022/08/19 15:43:52;;;;;;;;;;;24.80;96.60;;;;;;5040714;28;19970;-79
2022/08/19 15:46:20;;;;;;;;;;;24.80;96.60;;;;;;5039522;28;20292;-79
2022/08/19 15:48:47;;;;;;;;;;;24.80;96.70;;;;;;5039090;28;19921;-79
2022/08/19 15:51:14;;;;;;;;;;;24.80;96.70;;;;;;5038199;28;19924;-78
2022/08/19 15:53:41;;;;;;;;;;;24.90;96.70;;;;;;5038684;28;20288;-79
2022/08/19 15:56:10;;;;;;;;;;;24.90;96.70;;;;;;5040021;28;19921;-79
2022/08/19 16:06:50;;;;;;;;;;;24.80;96.60;;;;;;5038279;28;19924;-80
2022/08/19 16:09:18;;;;;;;;;;;24.80;96.60;;;;;;5037874;28;19927;-80
2022/08/19 16:11:47;;;;;;;;;;;24.80;96.60;;;;;;5037816;28;19943;-80
2022/08/19 16:14:14;;;;;;;;;;;24.80;96.50;;;;;;5038154;28;19920;-80
2022/08/19 16:16:40;;;;;;;;;;;24.80;96.50;;;;;;5037816;28;19928;-80
2022/08/19 16:19:08;;;;;;;;;;;24.80;96.60;;;;;;5038217;28;19920;-81
2022/08/19 16:21:36;;;;;;;;;;;24.80;96.70;;;;;;5037724;28;20452;-82
2022/08/19 16:24:04;;;;;;;;;;;24.80;96.80;;;;;;5037700;28;20288;-82
2022/08/19 16:26:31;;;;;;;;;;;24.80;96.90;;;;;;5037808;28;20364;-81
2022/08/19 16:28:59;;;;;;;;;;;24.80;96.90;;;;;;5037085;28;19921;-79
2022/08/19 16:31:26;;;;;;;;;;;24.90;97.10;;;;;;5036772;28;19920;-80
2022/08/19 16:33:53;;;;;;;;;;;24.80;97.10;;;;;;5036973;28;19921;-80
2022/08/19 16:36:22;;;;;;;;;;;24.80;97.10;;;;;;5036691;28;19964;-81
2022/08/19 16:38:49;;;;;;;;;;;24.80;97.20;;;;;;5036813;28;19975;-81
2022/08/19 16:41:16;;;;;;;;;;;24.80;97.20;;;;;;5036361;28;20023;-81
2022/08/19 16:43:43;;;;;;;;;;;24.80;97.30;;;;;;5037090;28;19975;-81
2022/08/19 16:46:11;;;;;;;;;;;24.80;97.40;;;;;;5036448;28;19921;-81
2022/08/19 16:48:41;;;;;;;;;;;24.80;97.40;;;;;;5036320;28;19927;-81
2022/08/19 16:51:09;;;;;;;;;;;24.90;97.50;;;;;;5036826;28;20012;-81
2022/08/19 16:53:36;;;;;;;;;;;24.80;97.90;;;;;;5036191;28;19927;-82
2022/08/19 16:56:03;;;;;;;;;;;24.90;97.70;;;;;;5036678;28;19920;-81
2022/08/19 16:58:32;;;;;;;;;;;24.90;97.70;;;;;;5037005;28;20017;-82
2022/08/19 17:01:01;;;;;;;;;;;24.90;97.70;;;;;;5040886;28;19920;-82
2022/08/19 17:03:29;;;;;;;;;;;24.90;97.70;;;;;;5041480;28;19928;-80
2022/08/19 17:06:01;;;;;;;;;;;24.90;97.70;;;;;;5041595;28;19944;-80
2022/08/19 17:08:28;;;;;;;;;;;24.90;97.90;;;;;;5041087;28;19927;-80
2022/08/19 17:10:56;;;;;;;;;;;24.90;98.00;;;;;;5042409;28;19971;-81
2022/08/19 17:13:23;;;;;;;;;;;24.90;98.10;;;;;;5041729;28;19925;-81
2022/08/19 17:15:50;;;;;;;;;;;24.90;98.20;;;;;;5042897;28;19944;-81
2022/08/19 17:18:17;;;;;;;;;;;24.90;98.30;;;;;;5042713;28;19956;-80
2022/08/19 17:20:46;;;;;;;;;;;24.90;98.40;;;;;;5044209;28;20015;-80
2022/08/19 17:23:13;;;;;;;;;;;24.90;98.50;;;;;;5036752;28;20281;-77
2022/08/19 17:25:40;;;;;;;;;;;24.90;98.60;;;;;;5034843;28;19921;-77
2022/08/19 17:28:08;;;;;;;;;;;24.90;98.70;;;;;;5034813;28;19971;-77
2022/08/19 17:30:35;;;;;;;;;;;24.90;98.70;;;;;;5034243;28;19925;-77
2022/08/19 17:33:01;;;;;;;;;;;24.90;98.80;;;;;;5034367;28;19967;-77
2022/08/19 17:35:28;;;;;;;;;;;24.90;98.90;;;;;;5035256;28;20012;-78
2022/08/19 17:37:57;;;;;;;;;;;24.90;98.90;;;;;;5035861;28;20003;-78
2022/08/19 17:40:24;;;;;;;;;;;24.90;99.00;;;;;;5035367;28;19925;-78
2022/08/19 17:42:53;;;;;;;;;;;24.90;99.00;;;;;;5035956;28;19921;-79
2022/08/19 17:45:20;;;;;;;;;;;24.90;99.00;;;;;;5036014;28;19976;-78
2022/08/19 17:47:46;;;;;;;;;;;24.90;99.10;;;;;;5036130;28;19921;-78
2022/08/19 17:50:13;;;;;;;;;;;25.00;99.20;;;;;;5036521;28;19928;-79
2022/08/19 17:52:41;;;;;;;;;;;24.90;99.20;;;;;;5038257;28;19921;-79
2022/08/19 17:55:10;;;;;;;;;;;25.00;99.20;;;;;;5039117;28;20012;-79
2022/08/19 17:57:38;;;;;;;;;;;25.00;99.30;;;;;;5039920;28;19921;-79
2022/08/19 18:00:05;;;;;;;;;;;25.00;99.30;;;;;;5039628;28;20384;-79
2022/08/19 18:02:32;;;;;;;;;;;25.00;99.40;;;;;;5038247;28;19921;-78
2022/08/19 18:04:59;;;;;;;;;;;25.00;99.40;;;;;;5036416;28;19960;-78
2022/08/19 18:07:25;;;;;;;;;;;25.00;99.40;;;;;;5040990;28;19964;-81
2022/08/19 18:09:53;;;;;;;;;;;25.00;99.50;;;;;;5048949;28;19921;-81
2022/08/19 18:12:26;;;;;;;;;;;25.00;99.50;;;;;;5049875;28;19920;-81
2022/08/19 18:14:52;;;;;;;;;;;25.00;99.60;;;;;;5052968;28;19925;-81
2022/08/19 18:17:21;;;;;;;;;;;25.00;99.60;;;;;;5052295;28;19960;-81
2022/08/19 18:19:48;;;;;;;;;;;25.00;99.60;;;;;;5051891;28;19921;-80
2022/08/19 18:22:21;;;;;;;;;;;25.00;99.60;;;;;;5052019;28;19932;-80
2022/08/19 18:24:48;;;;;;;;;;;25.00;99.60;;;;;;5051434;28;19921;-80
2022/08/19 18:27:15;;;;;;;;;;;25.00;99.60;;;;;;5052794;28;20383;-80
2022/08/19 18:29:43;;;;;;;;;;;25.00;99.70;;;;;;5052279;28;19952;-80
2022/08/19 18:32:12;;;;;;;;;;;25.00;99.70;;;;;;5052303;28;19979;-80
2022/08/19 18:34:39;;;;;;;;;;;25.00;99.70;;;;;;5051868;28;19921;-80
2022/08/19 18:37:06;;;;;;;;;;;25.00;99.70;;;;;;5052323;28;19928;-81
2022/08/19 18:50:32;;;;;;;;;;;24.90;99.70;;;;;;5051587;28;19924;-81
2022/08/19 18:53:00;;;;;;;;;;;24.90;99.70;;;;;;5051904;28;19921;-81
2022/08/19 18:55:28;;;;;;;;;;;24.90;99.60;;;;;;5050014;28;20363;-80
2022/08/19 18:57:54;;;;;;;;;;;24.90;99.60;;;;;;5049370;28;19921;-80
2022/08/19 19:00:22;;;;;;;;;;;24.90;99.70;;;;;;5049056;28;19974;-80
2022/08/19 19:02:49;;;;;;;;;;;24.90;99.70;;;;;;5049144;28;20007;-80
2022/08/19 19:05:16;;;;;;;;;;;24.90;99.60;;;;;;5048832;28;20352;-80
2022/08/19 19:07:42;;;;;;;;;;;24.90;99.60;;;;;;5049781;28;19960;-80
2022/08/19 19:10:09;;;;;;;;;;;24.90;99.60;;;;;;5049350;28;19992;-80
2022/08/19 19:12:39;;;;;;;;;;;24.90;99.60;;;;;;5049191;28;19988;-80
2022/08/19 19:15:06;;;;;;;;;;;24.90;99.60;;;;;;5051089;28;19984;-81
2022/08/19 19:17:34;;;;;;;;;;;24.90;99.60;;;;;;5050829;28;19964;-81
2022/08/19 19:20:01;;;;;;;;;;;24.90;99.60;;;;;;5049644;28;19949;-81
2022/08/19 19:22:27;;;;;;;;;;;24.90;99.60;;;;;;5051051;28;19943;-81
2022/08/19 19:24:54;;;;;;;;;;;24.90;99.70;;;;;;5050091;28;20403;-81
2022/08/19 19:27:21;;;;;;;;;;;24.90;99.70;;;;;;5049815;28;19964;-81
2022/08/19 19:29:48;;;;;;;;;;;24.90;99.80;;;;;;5048538;28;20368;-82
2022/08/19 19:32:17;;;;;;;;;;;25.00;99.90;;;;;;5050970;28;19956;-82
2022/08/19 19:34:45;;;;;;;;;;;24.90;99.90;;;;;;5050828;28;20442;-82
2022/08/19 19:37:12;;;;;;;;;;;25.00;99.90;;;;;;5048126;28;19964;-83
2022/08/19 19:39:38;;;;;;;;;;;25.00;99.90;;;;;;5043981;28;19988;-83
2022/08/19 19:42:06;;;;;;;;;;;25.00;99.90;;;;;;5043398;28;19989;-81
2022/08/19 19:44:33;;;;;;;;;;;25.00;99.90;;;;;;5044976;28;19921;-78
2022/08/19 19:46:59;;;;;;;;;;;25.00;99.90;;;;;;5040883;28;19988;-84
2022/08/19 19:49:26;;;;;;;;;;;25.00;99.90;;;;;;5039941;28;20008;-84
2022/08/19 19:51:54;;;;;;;;;;;25.00;99.90;;;;;;5043766;28;19921;-84
2022/08/19 19:54:21;;;;;;;;;;;25.00;99.90;;;;;;5046257;28;19921;-84
2022/08/19 19:56:49;;;;;;;;;;;25.00;99.90;;;;;;5046827;28;19956;-83
2022/08/19 19:59:16;;;;;;;;;;;25.00;99.90;;;;;;5044532;28;20380;-83
2022/08/19 20:01:44;;;;;;;;;;;25.00;99.90;;;;;;5043879;28;20012;-82
2022/08/19 20:04:11;;;;;;;;;;;25.10;99.90;;;;;;5044833;28;19963;-83
2022/08/19 20:06:38;;;;;;;;;;;25.10;99.90;;;;;;5046629;28;19964;-82
2022/08/19 20:09:09;;;;;;;;;;;25.10;99.90;;;;;;5045069;28;19988;-82
2022/08/19 20:11:37;;;;;;;;;;;25.10;99.90;;;;;;5045147;28;19921;-82
2022/08/19 20:14:05;;;;;;;;;;;25.10;99.90;;;;;;5045760;28;19921;-82
2022/08/19 20:16:32;;;;;;;;;;;25.00;99.90;;;;;;5044597;28;19921;-82
2022/08/19 20:19:00;;;;;;;;;;;25.00;99.90;;;;;;5052887;28;19956;-82
2022/08/19 20:21:30;;;;;;;;;;;25.10;99.90;;;;;;5055843;28;19952;-82
2022/08/19 20:23:56;;;;;;;;;;;25.10;99.90;;;;;;5055241;28;19921;-82
2022/08/19 20:26:25;;;;;;;;;;;25.10;99.90;;;;;;5056600;28;19973;-83
2022/08/19 20:28:51;;;;;;;;;;;25.10;99.90;;;;;;5052658;28;19956;-83
2022/08/19 20:31:18;;;;;;;;;;;25.10;99.90;;;;;;5051775;28;19963;-83
2022/08/19 20:33:45;;;;;;;;;;;25.10;99.90;;;;;;5050569;28;19921;-83
2022/08/19 20:36:12;;;;;;;;;;;25.10;99.90;;;;;;5048946;28;19925;-83
2022/08/19 20:38:39;;;;;;;;;;;25.10;99.90;;;;;;5049849;28;19921;-83
2022/08/19 20:41:06;;;;;;;;;;;25.10;99.90;;;;;;5049173;28;19921;-83
2022/08/19 20:43:34;;;;;;;;;;;25.10;99.90;;;;;;5047149;28;19960;-83
2022/08/19 20:46:02;;;;;;;;;;;25.10;99.90;;;;;;5042939;28;19921;-83
2022/08/19 20:48:28;;;;;;;;;;;25.10;99.90;;;;;;5042974;28;19921;-82
2022/08/19 20:50:56;;;;;;;;;;;25.10;99.90;;;;;;5043385;28;20008;-82
2022/08/19 20:53:25;;;;;;;;;;;25.10;99.90;;;;;;5043887;28;19943;-83
2022/08/19 20:55:53;;;;;;;;;;;25.10;99.90;;;;;;5043203;28;19920;-83
2022/08/19 20:58:20;;;;;;;;;;;25.10;99.90;;;;;;5043590;28;20023;-83
2022/08/19 21:00:49;;;;;;;;;;;25.10;99.90;;;;;;5041494;28;19982;-83
2022/08/19 21:03:17;;;;;;;;;;;25.10;99.90;;;;;;5042145;28;20035;-83
2022/08/19 21:05:45;;;;;;;;;;;25.10;99.90;;;;;;5041015;28;20300;-82
2022/08/19 21:08:12;;;;;;;;;;;25.10;99.90;;;;;;5040347;28;19928;-82
2022/08/19 21:10:38;;;;;;;;;;;25.10;99.90;;;;;;5040493;28;20020;-82
2022/08/19 21:13:05;;;;;;;;;;;25.10;99.90;;;;;;5040526;28;19971;-83
2022/08/19 21:15:33;;;;;;;;;;;25.10;99.90;;;;;;5041841;28;20012;-84
2022/08/19 21:18:01;;;;;;;;;;;25.10;99.90;;;;;;5043386;28;19927;-84
2022/08/19 21:20:27;;;;;;;;;;;25.10;99.90;;;;;;5043837;28;20020;-84
2022/08/19 21:22:54;;;;;;;;;;;25.10;99.90;;;;;;5042991;28;20057;-84
2022/08/19 21:25:21;;;;;;;;;;;25.10;99.90;;;;;;5043808;28;19985;-84
2022/08/19 21:27:47;;;;;;;;;;;25.10;99.90;;;;;;5043161;28;19952;-83
2022/08/19 21:30:14;;;;;;;;;;;25.10;99.90;;;;;;5043817;28;20037;-83
2022/08/19 21:32:41;;;;;;;;;;;25.10;99.90;;;;;;5043085;28;20008;-83
2022/08/19 21:35:09;;;;;;;;;;;25.10;99.90;;;;;;5043215;28;20008;-83
2022/08/19 21:37:37;;;;;;;;;;;25.10;99.90;;;;;;5043078;28;19920;-83
2022/08/19 21:40:05;;;;;;;;;;;25.10;99.90;;;;;;5042840;28;19928;-82
2022/08/19 21:42:31;;;;;;;;;;;25.10;99.90;;;;;;5041705;28;19921;-83
2022/08/19 21:44:58;;;;;;;;;;;25.10;99.90;;;;;;5041804;28;20016;-83
2022/08/19 21:47:25;;;;;;;;;;;25.10;99.90;;;;;;5042544;28;19921;-83
2022/08/19 21:49:52;;;;;;;;;;;25.10;99.90;;;;;;5042309;28;19987;-83
2022/08/19 21:52:22;;;;;;;;;;;25.10;99.90;;;;;;5042024;28;19956;-83
2022/08/19 21:54:48;;;;;;;;;;;25.10;99.90;;;;;;5042200;28;19980;-82
2022/08/19 21:57:15;;;;;;;;;;;25.10;99.90;;;;;;5042259;28;19980;-82
2022/08/19 21:59:42;;;;;;;;;;;25.10;99.90;;;;;;5042469;28;20007;-83
2022/08/19 22:02:09;;;;;;;;;;;25.10;99.90;;;;;;5042250;28;20024;-83
2022/08/19 22:04:39;;;;;;;;;;;25.10;99.90;;;;;;5041949;28;19921;-83
2022/08/19 22:07:13;;;;;;;;;;;25.10;99.90;;;;;;5044654;28;19921;-83
2022/08/19 22:09:41;;;;;;;;;;;25.10;99.90;;;;;;5043805;28;19927;-83
2022/08/19 22:12:09;;;;;;;;;;;25.10;99.90;;;;;;5040510;28;20387;-83
2022/08/19 22:14:36;;;;;;;;;;;25.10;99.90;;;;;;5039343;28;19928;-83
2022/08/19 22:17:02;;;;;;;;;;;25.10;99.90;;;;;;5039258;28;20404;-83
2022/08/19 22:19:29;;;;;;;;;;;25.10;99.90;;;;;;5040323;28;19956;-83
2022/08/19 22:21:56;;;;;;;;;;;25.10;99.90;;;;;;5039567;28;19999;-84